Ann Marie Rose — WDA320 — position and weather

sailwx.info

Track history (hours):
 
Tides and Currents Weather Stations Pressure Air Temp Water Temp Dewpoint Dewpoint Depression Visibility Wind Speed Wind Dir Waves Ship Positions

Ann Marie Rose

Last reported at 2016-Apr-23 03:09 UTC. Time now 2016-Apr-30 05:11 UTC.
Position N 36°50' W 076°18'.

Length 14 m.

Type: Pleasure craft. MMSI: 338095872.

Date/timePositionNaut miles runAvg speedWind from/ knotsBaromVisibWave heightAir tempDewpointWater temp
2016-Apr-23 03:09N 36°50' W 076°18'0 0.0
2016-Apr-23 00:09N 36°50' W 076°18'0 0.0
2016-Apr-22 10:15N 36°50' W 076°18'0 0.0
2016-Apr-22 07:27N 36°50' W 076°18'0 0.0
2016-Apr-22 06:15N 36°50' W 076°18'0 0.0
2016-Apr-22 05:33N 36°50' W 076°18'0 0.0
2016-Apr-22 04:27N 36°50' W 076°18'0 0.0
2016-Apr-22 03:33N 36°50' W 076°18'0 0.0
2016-Apr-22 02:24N 36°50' W 076°18'0 0.0
2016-Apr-22 01:33N 36°50' W 076°18'0 0.0
2016-Apr-22 00:33N 36°50' W 076°18'0 0.0
2016-Apr-21 23:15N 36°50' W 076°18'0 0.0
2016-Apr-21 20:27N 36°50' W 076°18'0 0.0
2016-Apr-21 15:33N 36°50' W 076°18'0 0.0
2016-Apr-21 14:27N 36°50' W 076°18'  
2016-Apr-18 21:17N 36°50' W 076°18'4 4.9
2016-Apr-18 20:33N 36°46' W 076°18'  
2016-Apr-16 13:19N 34°54' W 076°40'5 6.2
2016-Apr-16 12:33N 34°50' W 076°41'6 6.0
2016-Apr-16 11:33N 34°44' W 076°42'2 1.5
2016-Apr-16 10:32N 34°43' W 076°40'0 0.0
2016-Apr-16 09:32N 34°43' W 076°40'0 0.0
2016-Apr-16 08:29N 34°43' W 076°40'0 0.0
2016-Apr-16 07:32N 34°43' W 076°40'0 0.0
2016-Apr-16 06:32N 34°43' W 076°40'0 0.0
2016-Apr-16 05:32N 34°43' W 076°40'0 0.0
2016-Apr-16 04:32N 34°43' W 076°40'0 0.0
2016-Apr-16 03:32N 34°43' W 076°40'0 0.0
2016-Apr-16 02:32N 34°43' W 076°40'0 0.0
2016-Apr-16 01:32N 34°43' W 076°40'0 0.0
2016-Apr-16 00:32N 34°43' W 076°40'0 0.0
2016-Apr-15 23:32N 34°43' W 076°40'0 0.0
2016-Apr-15 22:32N 34°43' W 076°40'5 5.0
2016-Apr-15 21:33N 34°43' W 076°46'  
Track history (hours):
 
Tides and Currents Weather Stations Pressure Air Temp Water Temp Dewpoint Dewpoint Depression Visibility Wind Speed Wind Dir Waves Ship Positions

Ann Marie Rose

Last reported at 2016-Apr-23 03:09 UTC. Time now 2016-Apr-30 05:11 UTC.
Position N 36°50' W 076°18'.

Length 14 m.

Type: Pleasure craft. MMSI: 338095872.

Date/timePositionNaut miles runAvg speedWind from/ knotsBaromVisibWave heightAir tempDewpointWater temp
2016-Apr-23 03:09N 36°50' W 076°18'0 0.0
2016-Apr-23 00:09N 36°50' W 076°18'0 0.0
2016-Apr-22 10:15N 36°50' W 076°18'0 0.0
2016-Apr-22 07:27N 36°50' W 076°18'0 0.0
2016-Apr-22 06:15N 36°50' W 076°18'0 0.0
2016-Apr-22 05:33N 36°50' W 076°18'0 0.0
2016-Apr-22 04:27N 36°50' W 076°18'0 0.0
2016-Apr-22 03:33N 36°50' W 076°18'0 0.0
2016-Apr-22 02:24N 36°50' W 076°18'0 0.0
2016-Apr-22 01:33N 36°50' W 076°18'0 0.0
2016-Apr-22 00:33N 36°50' W 076°18'0 0.0
2016-Apr-21 23:15N 36°50' W 076°18'0 0.0
2016-Apr-21 20:27N 36°50' W 076°18'0 0.0
2016-Apr-21 15:33N 36°50' W 076°18'0 0.0
2016-Apr-21 14:27N 36°50' W 076°18'  
2016-Apr-18 21:17N 36°50' W 076°18'4 4.9
2016-Apr-18 20:33N 36°46' W 076°18'  
2016-Apr-16 13:19N 34°54' W 076°40'5 6.2
2016-Apr-16 12:33N 34°50' W 076°41'6 6.0
2016-Apr-16 11:33N 34°44' W 076°42'2 1.5
2016-Apr-16 10:32N 34°43' W 076°40'0 0.0
2016-Apr-16 09:32N 34°43' W 076°40'0 0.0
2016-Apr-16 08:29N 34°43' W 076°40'0 0.0
2016-Apr-16 07:32N 34°43' W 076°40'0 0.0
2016-Apr-16 06:32N 34°43' W 076°40'0 0.0
2016-Apr-16 05:32N 34°43' W 076°40'0 0.0
2016-Apr-16 04:32N 34°43' W 076°40'0 0.0
2016-Apr-16 03:32N 34°43' W 076°40'0 0.0
2016-Apr-16 02:32N 34°43' W 076°40'0 0.0
2016-Apr-16 01:32N 34°43' W 076°40'0 0.0
2016-Apr-16 00:32N 34°43' W 076°40'0 0.0
2016-Apr-15 23:32N 34°43' W 076°40'0 0.0
2016-Apr-15 22:32N 34°43' W 076°40'5 5.0
2016-Apr-15 21:33N 34°43' W 076°46'  

Dump ship's entire track history